Time;durP1;ratioP1;P1;durP2;ratioP2;P2;SDS_P1;SDS_P2;PMS_P1;PMS_P2;Temp;Humidity;BMP_temperature;BMP_pressure;BME280_temperature;BME280_humidity;BME280_pressure;Samples;Min_cycle;Max_cycle;Signal;HPM_P1;HPM_P2
2023/03/01 00:00:51;;;;;;;;;;;;;;;17.54;55.46;98493.44;2065504;28;19937;-53
2023/03/01 00:01:52;;;;;;;;;;;;;;;17.52;55.32;98479.38;2067622;28;19958;-50
2023/03/01 00:02:53;;;;;;;;;;;;;;;17.52;55.23;98470.53;2064109;28;19926;-49
2023/03/01 00:03:55;;;;;;;;;;;;;;;17.50;55.51;98478.78;2064205;28;19929;-49
2023/03/01 00:04:57;;;;;;;;;;;;;;;17.49;55.38;98477.13;2062380;28;20028;-51
2023/03/01 00:05:58;;;;;;;;;;;;;;;17.47;55.53;98479.19;2066068;28;19929;-54
2023/03/01 00:06:59;;;;;;;;;;;;;;;17.47;55.42;98486.38;2065159;28;19939;-48
2023/03/01 00:07:59;;;;;;;;;;;;;;;17.46;55.38;98477.50;2065360;28;20422;-48
2023/03/01 00:09:01;;;;;;;;;;;;;;;17.45;55.44;98483.91;2064979;28;19956;-53
2023/03/01 00:10:02;;;;;;;;;;;;;;;17.45;55.44;98485.78;2061428;28;19933;-49
2023/03/01 00:11:04;;;;;;;;;;;;;;;17.43;55.51;98481.41;2065893;28;20916;-53
2023/03/01 00:12:05;;;;;;;;;;;;;;;17.42;55.54;98487.00;2065311;28;20437;-49
2023/03/01 00:13:06;;;;;;;;;;;;;;;17.39;55.52;98476.69;2064947;28;19983;-54
2023/03/01 00:14:07;;;;;;;;;;;;;;;17.39;55.54;98492.75;2063366;28;19926;-52
2023/03/01 00:15:09;;;;;;;;;;;;;;;17.38;55.45;98480.38;2073842;28;20443;-53
2023/03/01 00:16:10;;;;;;;;;;;;;;;17.36;55.56;98475.22;2072907;28;19983;-48
2023/03/01 00:17:12;;;;;;;;;;;;;;;17.36;55.31;98483.25;2067099;28;19974;-51
2023/03/01 00:18:12;;;;;;;;;;;;;;;17.36;55.55;98482.44;2064782;28;19925;-51
2023/03/01 00:19:16;;;;;;;;;;;;;;;17.32;55.59;98476.63;2065647;28;19961;-53
2023/03/01 00:20:17;;;;;;;;;;;;;;;17.32;55.51;98471.25;2063942;28;19987;-52
2023/03/01 00:21:20;;;;;;;;;;;;;;;17.33;55.54;98478.31;2064511;28;20371;-50
2023/03/01 00:22:21;;;;;;;;;;;;;;;17.31;55.63;98476.84;2063208;28;20295;-50
2023/03/01 00:23:22;;;;;;;;;;;;;;;17.33;55.35;98474.78;2065355;28;19956;-52
2023/03/01 00:24:23;;;;;;;;;;;;;;;17.32;55.50;98465.91;2064301;28;19929;-49
2023/03/01 00:25:24;;;;;;;;;;;;;;;17.32;55.52;98465.09;2062370;28;20006;-52
2023/03/01 00:26:25;;;;;;;;;;;;;;;17.29;55.38;98468.97;2063491;28;19979;-49
2023/03/01 00:27:27;;;;;;;;;;;;;;;17.30;55.49;98461.75;2064662;28;20493;-50
2023/03/01 00:28:27;;;;;;;;;;;;;;;17.29;55.39;98454.75;2060984;28;19940;-50
2023/03/01 00:29:29;;;;;;;;;;;;;;;17.28;55.47;98461.16;2064210;28;21092;-51
2023/03/01 00:30:29;;;;;;;;;;;;;;;17.28;55.54;98458.47;2063144;28;19971;-51
2023/03/01 00:31:31;;;;;;;;;;;;;;;17.27;55.54;98459.47;2065395;28;20015;-53
2023/03/01 00:32:32;;;;;;;;;;;;;;;17.25;55.57;98456.19;2069864;28;20375;-53
2023/03/01 00:33:33;;;;;;;;;;;;;;;17.25;55.50;98453.53;2065112;28;19929;-52
2023/03/01 00:34:35;;;;;;;;;;;;;;;17.24;55.52;98451.84;2058251;28;19951;-48
2023/03/01 00:35:37;;;;;;;;;;;;;;;17.23;55.52;98447.53;2073193;28;19983;-52
2023/03/01 00:36:37;;;;;;;;;;;;;;;17.21;55.58;98453.06;2074523;28;19952;-49
2023/03/01 00:37:40;;;;;;;;;;;;;;;17.19;55.52;98449.78;2074399;28;19929;-51
2023/03/01 00:38:41;;;;;;;;;;;;;;;17.18;55.66;98454.28;2074482;28;20019;-51
2023/03/01 00:39:43;;;;;;;;;;;;;;;17.18;55.56;98458.81;2074880;28;20330;-51
2023/03/01 00:40:43;;;;;;;;;;;;;;;17.17;55.56;98449.97;2070372;28;19957;-48
2023/03/01 00:41:45;;;;;;;;;;;;;;;17.17;55.49;98435.75;2074840;28;19925;-50
2023/03/01 00:42:45;;;;;;;;;;;;;;;17.15;55.55;98441.28;2074308;28;19936;-52
2023/03/01 00:43:47;;;;;;;;;;;;;;;17.12;55.37;98436.34;2075128;28;19929;-49
2023/03/01 00:44:47;;;;;;;;;;;;;;;17.13;55.56;98429.97;2073422;28;19941;-50
2023/03/01 00:45:49;;;;;;;;;;;;;;;17.12;55.63;98432.81;2074323;28;19925;-49
2023/03/01 00:46:49;;;;;;;;;;;;;;;17.09;55.64;98438.59;2075283;28;19929;-53
2023/03/01 00:47:51;;;;;;;;;;;;;;;17.08;55.74;98432.41;2074417;28;19936;-52
2023/03/01 00:48:51;;;;;;;;;;;;;;;17.09;55.70;98417.97;2074942;28;19933;-50
2023/03/01 00:49:54;;;;;;;;;;;;;;;17.09;55.64;98428.69;2072296;28;20383;-53
2023/03/01 00:50:54;;;;;;;;;;;;;;;17.08;55.62;98427.06;2074845;28;20023;-52
2023/03/01 00:51:56;;;;;;;;;;;;;;;17.08;55.69;98426.22;2074672;28;19933;-52
2023/03/01 00:52:56;;;;;;;;;;;;;;;17.07;55.73;98428.06;2073314;28;19979;-49
2023/03/01 00:54:00;;;;;;;;;;;;;;;17.07;55.72;98425.38;2074484;28;21494;-50
2023/03/01 00:55:01;;;;;;;;;;;;;;;17.05;55.63;98416.72;2074226;28;19929;-50
2023/03/01 00:56:03;;;;;;;;;;;;;;;17.05;55.57;98418.56;2074975;28;19986;-51
2023/03/01 00:57:03;;;;;;;;;;;;;;;17.03;55.66;98421.44;2075068;28;19978;-50
2023/03/01 00:58:05;;;;;;;;;;;;;;;17.02;55.71;98425.16;2073590;28;19988;-52
2023/03/01 00:59:05;;;;;;;;;;;;;;;17.01;55.66;98420.00;2074886;28;19970;-50
2023/03/01 01:00:09;;;;;;;;;;;;;;;17.00;55.79;98419.16;2073042;28;19933;-51
2023/03/01 01:01:16;;;;;;;;;;;;;;;16.97;55.76;98419.56;2075004;28;19968;-51
2023/03/01 01:02:18;;;;;;;;;;;;;;;16.95;55.75;98411.72;2074027;28;20330;-52
2023/03/01 01:03:18;;;;;;;;;;;;;;;16.94;55.82;98419.97;2074827;28;19936;-47
2023/03/01 01:04:20;;;;;;;;;;;;;;;16.95;55.76;98411.72;2074233;28;19925;-52
2023/03/01 01:05:22;;;;;;;;;;;;;;;16.94;55.69;98406.56;2067441;28;19933;-49
2023/03/01 01:06:24;;;;;;;;;;;;;;;16.94;55.75;98410.06;2064248;28;19940;-49
2023/03/01 01:07:24;;;;;;;;;;;;;;;16.89;55.96;98404.47;2064179;28;19936;-49
2023/03/01 01:08:26;;;;;;;;;;;;;;;16.92;55.81;98397.91;2066788;28;19929;-51
2023/03/01 01:09:26;;;;;;;;;;;;;;;16.91;55.72;98389.03;2063151;28;19929;-52
2023/03/01 01:10:28;;;;;;;;;;;;;;;16.92;55.69;98393.38;2064881;28;19979;-56
2023/03/01 01:11:29;;;;;;;;;;;;;;;16.93;55.62;98388.81;2064386;28;19943;-52
2023/03/01 01:12:30;;;;;;;;;;;;;;;16.91;55.69;98393.56;2065956;28;20014;-52
2023/03/01 01:13:31;;;;;;;;;;;;;;;16.87;55.77;98392.31;2064584;28;19991;-48
2023/03/01 01:14:32;;;;;;;;;;;;;;;16.87;55.76;98382.41;2062954;28;20086;-50
2023/03/01 01:15:33;;;;;;;;;;;;;;;16.85;55.80;98379.09;2063517;28;19984;-52
2023/03/01 01:16:35;;;;;;;;;;;;;;;16.84;55.73;98371.28;2060116;28;20971;-50
2023/03/01 01:17:35;;;;;;;;;;;;;;;16.84;55.80;98372.09;2058713;28;20010;-48
2023/03/01 01:18:37;;;;;;;;;;;;;;;16.84;55.95;98377.47;2069167;28;19990;-50
2023/03/01 01:19:37;;;;;;;;;;;;;;;16.84;55.73;98373.97;2065690;28;19979;-51
2023/03/01 01:20:40;;;;;;;;;;;;;;;16.84;55.79;98371.28;2057274;28;19996;-59
2023/03/01 01:21:42;;;;;;;;;;;;;;;16.80;55.79;98375.38;2069525;28;19948;-49
2023/03/01 01:22:44;;;;;;;;;;;;;;;16.80;55.78;98367.31;2072197;28;19999;-50
2023/03/01 01:23:45;;;;;;;;;;;;;;;16.77;55.93;98365.03;2075109;28;19951;-52
2023/03/01 01:24:46;;;;;;;;;;;;;;;16.79;55.74;98363.00;2074153;28;19936;-47
2023/03/01 01:25:47;;;;;;;;;;;;;;;16.78;55.72;98366.72;2070764;28;21682;-51
2023/03/01 01:26:48;;;;;;;;;;;;;;;16.75;55.92;98365.22;2062318;28;20656;-47
2023/03/01 01:27:49;;;;;;;;;;;;;;;16.75;55.73;98368.72;2064549;28;19933;-60
2023/03/01 01:28:50;;;;;;;;;;;;;;;16.74;55.89;98369.75;2062511;28;19991;-60
2023/03/01 01:29:52;;;;;;;;;;;;;;;16.74;55.92;98372.44;2062067;28;19936;-50
2023/03/01 01:30:54;;;;;;;;;;;;;;;16.74;55.80;98372.44;2064522;28;19956;-58
2023/03/01 01:31:55;;;;;;;;;;;;;;;16.75;55.73;98373.25;2063470;28;19940;-55
2023/03/01 01:32:56;;;;;;;;;;;;;;;16.74;55.79;98359.06;2063155;28;19979;-57
2023/03/01 01:33:59;;;;;;;;;;;;;;;16.71;55.83;98366.63;2065944;28;20038;-47
2023/03/01 01:34:59;;;;;;;;;;;;;;;16.69;56.01;98376.75;2065783;28;20558;-57
2023/03/01 01:36:02;;;;;;;;;;;;;;;16.67;55.90;98366.22;2062967;28;20006;-52
2023/03/01 01:37:03;;;;;;;;;;;;;;;16.68;55.98;98361.69;2066067;28;19933;-52
2023/03/01 01:38:04;;;;;;;;;;;;;;;16.66;55.95;98356.53;2064158;28;19928;-47
2023/03/01 01:39:05;;;;;;;;;;;;;;;16.65;55.94;98354.84;2062596;28;19933;-59
2023/03/01 01:40:06;;;;;;;;;;;;;;;16.67;55.86;98352.00;2064414;28;19933;-50
2023/03/01 01:41:07;;;;;;;;;;;;;;;16.66;55.97;98343.16;2065498;28;19929;-56
2023/03/01 01:42:13;;;;;;;;;;;;;;;16.67;55.93;98341.28;2064329;28;19925;-53
2023/03/01 01:43:17;;;;;;;;;;;;;;;16.64;55.84;98347.03;2065054;28;19933;-58
2023/03/01 01:44:20;;;;;;;;;;;;;;;16.64;55.96;98344.38;2065364;28;20422;-60
2023/03/01 01:45:38;;;;;;;;;;;;;;;16.63;55.83;98343.53;2061367;28;19933;-60
2023/03/01 01:46:41;;;;;;;;;;;;;;;16.62;55.83;98335.69;2062783;28;19925;-55
2023/03/01 01:47:42;;;;;;;;;;;;;;;16.60;56.05;98332.38;2063158;28;19937;-53
2023/03/01 01:48:45;;;;;;;;;;;;;;;16.60;56.00;98337.72;2065214;28;19929;-56
2023/03/01 01:49:48;;;;;;;;;;;;;;;16.59;56.04;98333.41;2069309;28;19939;-52
2023/03/01 01:50:56;;;;;;;;;;;;;;;16.58;55.95;98337.94;2063825;28;21993;-55
2023/03/01 01:52:01;;;;;;;;;;;;;;;16.58;55.99;98329.91;2062431;28;19979;-52
2023/03/01 01:53:02;;;;;;;;;;;;;;;16.56;55.98;98331.97;2062663;28;20064;-59
2023/03/01 01:54:05;;;;;;;;;;;;;;;16.58;55.86;98335.28;2064389;28;20346;-52
2023/03/01 01:55:09;;;;;;;;;;;;;;;16.56;55.91;98336.50;2063361;28;19925;-52
2023/03/01 01:56:10;;;;;;;;;;;;;;;16.56;55.89;98331.13;2062638;28;20014;-52
2023/03/01 01:57:16;;;;;;;;;;;;;;;16.54;56.00;98344.72;2062371;28;19933;-51
2023/03/01 01:58:18;;;;;;;;;;;;;;;16.54;55.94;98334.00;2062408;28;20043;-49
2023/03/01 01:59:24;;;;;;;;;;;;;;;16.52;56.02;98346.78;2062828;28;19984;-49
2023/03/01 02:00:26;;;;;;;;;;;;;;;16.51;55.86;98337.06;2063147;28;19960;-55
2023/03/01 02:01:28;;;;;;;;;;;;;;;16.53;56.00;98343.06;2061963;28;19937;-56
2023/03/01 02:02:28;;;;;;;;;;;;;;;16.51;55.95;98339.75;2064818;28;20379;-54
2023/03/01 02:03:33;;;;;;;;;;;;;;;16.48;56.14;98334.78;2064172;28;19934;-54
2023/03/01 02:04:33;;;;;;;;;;;;;;;16.47;56.06;98325.13;2062347;28;19937;-50
2023/03/01 02:05:37;;;;;;;;;;;;;;;16.46;55.99;98318.91;2068997;28;20407;-54
2023/03/01 02:06:39;;;;;;;;;;;;;;;16.46;56.03;98321.59;2061720;28;19967;-50
2023/03/01 02:07:43;;;;;;;;;;;;;;;16.46;55.92;98312.75;2061236;28;19945;-59
2023/03/01 02:08:44;;;;;;;;;;;;;;;16.44;56.00;98296.91;2063418;28;19929;-52
2023/03/01 02:09:47;;;;;;;;;;;;;;;16.43;55.97;98315.81;2065544;28;20030;-59
2023/03/01 02:10:49;;;;;;;;;;;;;;;16.43;56.02;98321.16;2060818;28;20031;-49
2023/03/01 02:11:51;;;;;;;;;;;;;;;16.43;55.96;98315.81;2060299;28;19936;-54
2023/03/01 02:12:52;;;;;;;;;;;;;;;16.42;56.06;98315.00;2064713;28;19933;-58
2023/03/01 02:13:55;;;;;;;;;;;;;;;16.40;56.09;98310.84;2057622;28;20020;-52
2023/03/01 02:14:55;;;;;;;;;;;;;;;16.40;56.15;98305.50;2055961;28;19949;-57
2023/03/01 02:15:56;;;;;;;;;;;;;;;16.39;56.07;98301.19;2059005;28;20333;-57
2023/03/01 02:16:57;;;;;;;;;;;;;;;16.39;56.10;98309.22;2057839;28;24278;-47
2023/03/01 02:17:58;;;;;;;;;;;;;;;16.40;56.05;98297.47;2046030;28;21131;-53
2023/03/01 02:18:59;;;;;;;;;;;;;;;16.37;56.12;98300.53;2060988;28;19955;-52
2023/03/01 02:20:06;;;;;;;;;;;;;;;16.40;56.00;98289.44;2060116;28;19943;-48
2023/03/01 02:21:17;;;;;;;;;;;;;;;16.38;56.09;98303.03;2063771;28;19936;-51
2023/03/01 02:22:22;;;;;;;;;;;;;;;16.38;56.06;98300.38;2063996;28;19929;-47
2023/03/01 02:23:25;;;;;;;;;;;;;;;16.37;55.67;98300.53;2056045;28;21114;-49
2023/03/01 02:24:30;;;;;;;;;;;;;;;16.37;56.07;98303.22;2055639;28;19929;-50
2023/03/01 02:25:35;;;;;;;;;;;;;;;16.37;56.06;98311.25;2059711;28;19960;-50
2023/03/01 02:26:40;;;;;;;;;;;;;;;16.35;56.06;98302.59;2061962;28;19959;-50
2023/03/01 02:27:44;;;;;;;;;;;;;;;16.33;56.10;98301.97;2055508;28;21339;-47
2023/03/01 02:28:47;;;;;;;;;;;;;;;16.35;55.95;98302.59;2056653;28;20737;-50
2023/03/01 02:29:48;;;;;;;;;;;;;;;16.34;56.05;98300.94;2058350;28;19933;-49
2023/03/01 02:32:12;;;;;;;;;;;;;;;16.29;56.04;98288.13;2056494;28;19968;-51
2023/03/01 02:33:13;;;;;;;;;;;;;;;16.28;56.09;98298.03;2062302;28;19932;-52
2023/03/01 02:34:15;;;;;;;;;;;;;;;16.27;56.12;98285.69;2063563;28;19929;-51
2023/03/01 02:35:17;;;;;;;;;;;;;;;16.29;56.12;98288.97;2065200;28;19929;-52
2023/03/01 02:36:20;;;;;;;;;;;;;;;16.28;56.07;98286.50;2067339;28;19981;-48
2023/03/01 02:37:24;;;;;;;;;;;;;;;16.30;56.17;98284.47;2067403;28;20360;-49
2023/03/01 02:38:25;;;;;;;;;;;;;;;16.27;56.10;98291.03;2066530;28;19935;-52
2023/03/01 02:39:28;;;;;;;;;;;;;;;16.26;56.04;98284.00;2065824;28;19933;-48
2023/03/01 02:40:30;;;;;;;;;;;;;;;16.27;56.16;98280.31;2068057;28;19999;-50
2023/03/01 02:41:32;;;;;;;;;;;;;;;16.25;56.12;98277.00;2069685;28;19933;-49
2023/03/01 02:42:36;;;;;;;;;;;;;;;16.26;56.00;98273.31;2066708;28;20532;-49
2023/03/01 02:43:37;;;;;;;;;;;;;;;16.23;56.12;98273.69;2065703;28;19937;-49
2023/03/01 02:44:40;;;;;;;;;;;;;;;16.23;56.12;98259.50;2067828;28;19937;-51
2023/03/01 02:45:47;;;;;;;;;;;;;;;16.21;56.16;98267.72;2069821;28;20395;-49
2023/03/01 02:46:50;;;;;;;;;;;;;;;16.21;56.14;98272.25;2071949;28;20038;-51
2023/03/01 02:47:53;;;;;;;;;;;;;;;16.22;56.11;98261.34;2074060;28;19933;-50
2023/03/01 02:48:56;;;;;;;;;;;;;;;16.22;56.12;98274.75;2073504;28;19986;-50
2023/03/01 02:49:56;;;;;;;;;;;;;;;16.21;56.11;98266.88;2070500;28;19979;-49
2023/03/01 02:51:05;;;;;;;;;;;;;;;16.20;56.13;98271.41;2070342;28;19956;-52
2023/03/01 02:52:21;;;;;;;;;;;;;;;16.20;56.16;98262.56;2064237;28;20407;-52
2023/03/01 02:53:26;;;;;;;;;;;;;;;16.20;56.11;98268.75;2065393;28;20403;-53
2023/03/01 02:54:29;;;;;;;;;;;;;;;16.15;56.28;98256.97;2067379;28;19933;-47
2023/03/01 02:55:31;;;;;;;;;;;;;;;16.14;56.12;98258.84;2066664;28;20390;-48
2023/03/01 02:56:31;;;;;;;;;;;;;;;16.15;56.20;98248.94;2071560;28;19929;-52
2023/03/01 02:57:34;;;;;;;;;;;;;;;16.15;56.20;98259.66;2066295;28;19983;-51
2023/03/01 02:58:44;;;;;;;;;;;;;;;16.15;56.22;98262.34;2071043;28;19929;-51
2023/03/01 02:59:47;;;;;;;;;;;;;;;16.12;56.25;98250.16;2066111;28;19929;-47
2023/03/01 03:00:49;;;;;;;;;;;;;;;16.10;56.17;98246.84;2066770;28;19982;-53
2023/03/01 03:01:50;;;;;;;;;;;;;;;16.12;56.13;98244.81;2065510;28;21467;-50
2023/03/01 03:02:52;;;;;;;;;;;;;;;16.09;56.28;98239.88;2064468;28;19925;-52
2023/03/01 03:03:53;;;;;;;;;;;;;;;16.08;56.14;98239.03;2065042;28;19932;-52
2023/03/01 03:04:54;;;;;;;;;;;;;;;16.10;56.15;98241.50;2062863;28;20541;-50
2023/03/01 03:05:55;;;;;;;;;;;;;;;16.09;56.08;98226.50;2058285;28;19933;-47
2023/03/01 03:06:56;;;;;;;;;;;;;;;16.11;56.19;98237.84;2062939;28;19933;-50
2023/03/01 03:07:58;;;;;;;;;;;;;;;16.09;56.16;98229.16;2060700;28;19924;-51
2023/03/01 03:08:59;;;;;;;;;;;;;;;16.09;56.19;98238.00;2066755;28;20064;-51
2023/03/01 03:10:01;;;;;;;;;;;;;;;16.07;56.23;98228.53;2055130;28;19940;-52
2023/03/01 03:11:01;;;;;;;;;;;;;;;16.06;56.14;98242.94;2059251;28;20115;-51
2023/03/01 03:12:03;;;;;;;;;;;;;;;16.05;56.32;98247.47;2060746;28;20478;-52
2023/03/01 03:13:05;;;;;;;;;;;;;;;16.05;56.17;98249.31;2053698;28;19929;-49
2023/03/01 03:14:12;;;;;;;;;;;;;;;16.05;56.18;98230.59;2060520;28;21368;-49
2023/03/01 03:15:14;;;;;;;;;;;;;;;16.05;56.23;98233.28;2056343;28;19941;-51
2023/03/01 03:16:15;;;;;;;;;;;;;;;16.03;56.09;98257.53;2060764;28;19933;-51
2023/03/01 03:17:16;;;;;;;;;;;;;;;16.04;55.97;98259.16;2054558;28;19929;-47
2023/03/01 03:18:18;;;;;;;;;;;;;;;16.04;56.33;98242.31;2056574;28;20600;-52
2023/03/01 03:19:19;;;;;;;;;;;;;;;16.02;56.29;98244.38;2058043;28;20029;-50
2023/03/01 03:20:21;;;;;;;;;;;;;;;16.03;56.19;98246.84;2067474;28;19940;-53
2023/03/01 03:21:22;;;;;;;;;;;;;;;16.02;56.23;98234.50;2057590;28;19937;-50
2023/03/01 03:22:23;;;;;;;;;;;;;;;16.00;56.12;98231.19;2062713;28;19924;-49
2023/03/01 03:23:24;;;;;;;;;;;;;;;16.00;56.27;98233.03;2060262;28;19933;-52
2023/03/01 03:24:27;;;;;;;;;;;;;;;16.00;56.20;98236.53;2056079;28;19941;-51
2023/03/01 03:25:28;;;;;;;;;;;;;;;15.98;56.29;98246.59;2058145;28;19944;-55
2023/03/01 03:26:30;;;;;;;;;;;;;;;15.98;56.31;98256.47;2064876;28;19929;-57
2023/03/01 03:27:31;;;;;;;;;;;;;;;15.98;56.25;98264.50;2072137;28;19975;-59
2023/03/01 03:28:33;;;;;;;;;;;;;;;15.98;56.29;98265.31;2060181;28;20003;-59
2023/03/01 03:29:34;;;;;;;;;;;;;;;15.97;56.22;98266.34;2062640;28;19978;-54
2023/03/01 03:30:39;;;;;;;;;;;;;;;15.98;56.23;98265.31;2063612;28;20036;-59
2023/03/01 03:31:39;;;;;;;;;;;;;;;15.97;56.24;98258.31;2057144;28;19968;-53
2023/03/01 03:32:41;;;;;;;;;;;;;;;15.97;56.22;98255.66;2061861;28;20470;-54
2023/03/01 03:33:42;;;;;;;;;;;;;;;15.96;56.24;98248.63;2056962;28;19964;-53
2023/03/01 03:34:43;;;;;;;;;;;;;;;15.95;56.22;98264.88;2057566;28;19929;-60
2023/03/01 03:35:47;;;;;;;;;;;;;;;15.96;56.27;98255.81;2055134;28;20335;-56
2023/03/01 03:36:48;;;;;;;;;;;;;;;15.94;56.26;98263.25;2062778;28;19933;-57
2023/03/01 03:38:05;;;;;;;;;;;;;;;15.92;56.26;98258.06;2059884;28;19982;-59
2023/03/01 03:39:07;;;;;;;;;;;;;;;15.92;56.27;98247.38;2061064;28;19933;-55
2023/03/01 03:40:15;;;;;;;;;;;;;;;15.92;56.30;98258.06;2060828;28;20068;-58
2023/03/01 03:41:17;;;;;;;;;;;;;;;15.91;56.38;98248.41;2061181;28;20310;-57
2023/03/01 03:42:17;;;;;;;;;;;;;;;15.90;56.37;98252.09;2059843;28;20561;-48
2023/03/01 03:43:20;;;;;;;;;;;;;;;15.91;56.32;98259.09;2062118;28;19975;-53
2023/03/01 03:44:20;;;;;;;;;;;;;;;15.91;56.37;98258.25;2055322;28;19929;-48
2023/03/01 03:45:22;;;;;;;;;;;;;;;15.90;56.31;98261.97;2055644;28;20964;-49
2023/03/01 03:46:25;;;;;;;;;;;;;;;15.90;56.30;98262.78;2061191;28;19933;-51
2023/03/01 03:47:26;;;;;;;;;;;;;;;15.86;56.33;98240.97;2060676;28;19929;-53
2023/03/01 03:48:28;;;;;;;;;;;;;;;15.86;56.18;98248.97;2062739;28;19929;-50
2023/03/01 03:49:28;;;;;;;;;;;;;;;15.84;56.39;98245.66;2062009;28;19929;-52
2023/03/01 03:50:29;;;;;;;;;;;;;;;15.88;56.30;98245.28;2063070;28;20547;-50
2023/03/01 03:51:30;;;;;;;;;;;;;;;15.86;56.39;98245.50;2063666;28;19986;-51
2023/03/01 03:52:31;;;;;;;;;;;;;;;15.85;56.32;98255.38;2068710;28;20436;-52
2023/03/01 03:53:32;;;;;;;;;;;;;;;15.84;56.43;98242.16;2056677;28;20415;-50
2023/03/01 03:54:34;;;;;;;;;;;;;;;15.85;56.39;98250.00;2059159;28;19944;-51
2023/03/01 03:55:34;;;;;;;;;;;;;;;15.84;56.37;98256.38;2059974;28;20022;-53
2023/03/01 03:56:36;;;;;;;;;;;;;;;15.85;56.34;98263.38;2065676;28;22556;-50
2023/03/01 03:57:37;;;;;;;;;;;;;;;15.82;56.38;98261.09;2058247;28;20304;-51
2023/03/01 03:58:38;;;;;;;;;;;;;;;15.84;56.38;98256.38;2061551;28;19944;-52
2023/03/01 03:59:39;;;;;;;;;;;;;;;15.82;56.39;98258.44;2060095;28;19929;-51
2023/03/01 04:00:41;;;;;;;;;;;;;;;15.82;56.31;98250.41;2060344;28;20299;-50
2023/03/01 04:01:44;;;;;;;;;;;;;;;15.83;56.35;98241.34;2063599;28;19990;-53
2023/03/01 04:02:47;;;;;;;;;;;;;;;15.79;56.33;98241.94;2062399;28;20878;-51
2023/03/01 04:03:48;;;;;;;;;;;;;;;15.79;56.39;98228.56;2056653;28;19937;-51
2023/03/01 04:04:49;;;;;;;;;;;;;;;15.76;56.43;98240.47;2062534;28;20014;-49
2023/03/01 04:05:51;;;;;;;;;;;;;;;15.76;56.45;98245.81;2065868;28;19940;-51
2023/03/01 04:06:51;;;;;;;;;;;;;;;15.76;56.42;98243.13;2062377;28;19952;-53
2023/03/01 04:08:00;;;;;;;;;;;;;;;15.78;56.40;98240.28;2063695;28;19968;-52
2023/03/01 04:09:02;;;;;;;;;;;;;;;15.76;56.47;98245.81;2062270;28;20377;-51
2023/03/01 04:10:03;;;;;;;;;;;;;;;15.77;56.50;98252.84;2056454;28;21009;-54
2023/03/01 04:12:22;;;;;;;;;;;;;;;15.78;56.32;98251.81;2063824;28;20341;-53
2023/03/01 04:13:24;;;;;;;;;;;;;;;15.81;56.31;98253.25;2067474;28;19963;-51
2023/03/01 04:14:26;;;;;;;;;;;;;;;15.80;56.21;98247.09;2075247;28;19933;-51
2023/03/01 04:15:27;;;;;;;;;;;;;;;15.80;56.19;98247.09;2064085;28;20038;-53
2023/03/01 04:16:29;;;;;;;;;;;;;;;15.80;55.93;98249.78;2062124;28;19947;-52
2023/03/01 04:17:30;;;;;;;;;;;;;;;15.80;56.04;98255.13;2062781;28;19972;-52
2023/03/01 04:18:32;;;;;;;;;;;;;;;15.80;56.10;98241.75;2065696;28;19929;-54
2023/03/01 04:19:35;;;;;;;;;;;;;;;15.81;56.05;98237.22;2063957;28;20012;-52
2023/03/01 04:20:37;;;;;;;;;;;;;;;15.80;56.14;98233.72;2064823;28;20619;-53
2023/03/01 04:21:37;;;;;;;;;;;;;;;15.82;55.93;98233.50;2064207;28;20445;-53
2023/03/01 04:22:39;;;;;;;;;;;;;;;15.81;56.19;98222.00;2067284;28;19930;-51
2023/03/01 04:23:40;;;;;;;;;;;;;;;15.82;56.07;98226.34;2068348;28;20026;-51
2023/03/01 04:24:42;;;;;;;;;;;;;;;15.81;56.04;98230.03;2063967;28;20338;-51
2023/03/01 04:25:45;;;;;;;;;;;;;;;15.83;56.15;98224.50;2065831;28;19969;-53
2023/03/01 04:26:46;;;;;;;;;;;;;;;15.81;56.06;98237.22;2061320;28;19936;-51
2023/03/01 04:27:46;;;;;;;;;;;;;;;15.81;56.15;98246.06;2064119;28;19929;-52
2023/03/01 04:28:50;;;;;;;;;;;;;;;15.82;56.10;98245.06;2063642;28;19936;-49
2023/03/01 04:29:50;;;;;;;;;;;;;;;15.81;56.03;98235.38;2065334;28;19937;-54
2023/03/01 04:30:52;;;;;;;;;;;;;;;15.81;56.15;98243.38;2061690;28;19960;-52
2023/03/01 04:31:53;;;;;;;;;;;;;;;15.81;56.09;98232.69;2068138;28;20422;-52
2023/03/01 04:32:55;;;;;;;;;;;;;;;15.81;56.13;98240.72;2064849;28;20695;-53
2023/03/01 04:33:57;;;;;;;;;;;;;;;15.80;56.21;98236.41;2071763;28;20028;-54
2023/03/01 04:34:57;;;;;;;;;;;;;;;15.81;56.19;98246.06;2074065;28;19929;-50
2023/03/01 04:35:59;;;;;;;;;;;;;;;15.85;56.14;98238.47;2074081;28;19929;-48
2023/03/01 04:36:59;;;;;;;;;;;;;;;15.84;56.19;98237.66;2075010;28;19983;-50
2023/03/01 04:38:00;;;;;;;;;;;;;;;15.85;56.22;98233.97;2073552;28;19933;-51
2023/03/01 04:39:11;;;;;;;;;;;;;;;15.89;56.29;98233.56;2074407;28;19979;-53
2023/03/01 04:40:16;;;;;;;;;;;;;;;15.95;56.22;98236.28;2074049;28;19932;-52
2023/03/01 04:41:18;;;;;;;;;;;;;;;15.98;56.13;98229.72;2074157;28;19929;-53
2023/03/01 04:42:18;;;;;;;;;;;;;;;16.00;56.17;98230.34;2075983;28;19925;-51
2023/03/01 04:43:20;;;;;;;;;;;;;;;16.05;56.02;98222.56;2074313;28;19954;-53
2023/03/01 04:44:20;;;;;;;;;;;;;;;16.08;56.05;98217.66;2074649;28;20851;-52
2023/03/01 04:45:22;;;;;;;;;;;;;;;16.15;55.97;98206.97;2073177;28;19929;-53
2023/03/01 04:46:22;;;;;;;;;;;;;;;16.20;55.96;98217.09;2075340;28;19929;-51
2023/03/01 04:47:24;;;;;;;;;;;;;;;16.26;55.88;98208.25;2074551;28;19937;-50
2023/03/01 04:48:25;;;;;;;;;;;;;;;16.30;55.80;98210.34;2074569;28;19974;-51
2023/03/01 04:49:27;;;;;;;;;;;;;;;16.36;55.76;98197.19;2073883;28;19929;-52
2023/03/01 04:50:27;;;;;;;;;;;;;;;16.43;55.60;98192.69;2074064;28;20063;-51
2023/03/01 04:51:29;;;;;;;;;;;;;;;16.49;55.60;98191.88;2074536;28;19952;-51
2023/03/01 04:52:29;;;;;;;;;;;;;;;16.52;55.55;98196.84;2075622;28;20018;-52
2023/03/01 04:53:33;;;;;;;;;;;;;;;16.54;55.50;98192.09;2074328;28;20052;-52
2023/03/01 04:54:34;;;;;;;;;;;;;;;16.60;55.36;98183.25;2075095;28;20341;-51
2023/03/01 04:55:35;;;;;;;;;;;;;;;16.63;55.42;98179.34;2074604;28;19975;-51
2023/03/01 04:56:36;;;;;;;;;;;;;;;16.66;55.38;98187.00;2074855;28;19978;-49
2023/03/01 04:57:38;;;;;;;;;;;;;;;16.68;55.43;98188.44;2073999;28;19929;-51
2023/03/01 04:58:38;;;;;;;;;;;;;;;16.73;55.31;98194.03;2074491;28;19937;-50
2023/03/01 04:59:39;;;;;;;;;;;;;;;16.75;55.28;98197.34;2074850;28;19925;-50
2023/03/01 05:00:40;;;;;;;;;;;;;;;16.80;55.09;98193.22;2073692;28;20113;-52
2023/03/01 05:01:42;;;;;;;;;;;;;;;16.82;55.25;98188.50;2074687;28;19940;-49
2023/03/01 05:02:43;;;;;;;;;;;;;;;16.88;55.18;98201.09;2075179;28;19948;-51
2023/03/01 05:03:47;;;;;;;;;;;;;;;16.91;55.07;98206.88;2070196;28;19925;-50
2023/03/01 05:04:48;;;;;;;;;;;;;;;16.96;55.01;98207.06;2062791;28;19937;-48
2023/03/01 05:05:50;;;;;;;;;;;;;;;16.98;55.05;98201.53;2064933;28;19937;-49
2023/03/01 05:06:53;;;;;;;;;;;;;;;17.00;55.04;98202.16;2061443;28;19933;-52
2023/03/01 05:07:56;;;;;;;;;;;;;;;17.03;54.92;98203.59;2064678;28;20959;-49
2023/03/01 05:08:57;;;;;;;;;;;;;;;17.08;54.88;98201.16;2065625;28;19983;-49
2023/03/01 05:09:58;;;;;;;;;;;;;;;17.10;55.03;98194.53;2067500;28;20427;-54
2023/03/01 05:10:59;;;;;;;;;;;;;;;17.12;54.83;98197.00;2061947;28;19933;-52
2023/03/01 05:12:00;;;;;;;;;;;;;;;17.13;54.86;98196.81;2061209;28;19964;-49
2023/03/01 05:13:02;;;;;;;;;;;;;;;17.17;54.86;98200.72;2064001;28;19939;-48
2023/03/01 05:14:02;;;;;;;;;;;;;;;17.23;54.75;98198.25;2063624;28;19983;-49
2023/03/01 05:15:06;;;;;;;;;;;;;;;17.23;54.62;98192.91;2061530;28;19937;-50
2023/03/01 05:16:10;;;;;;;;;;;;;;;17.25;54.74;98190.84;2065477;28;20350;-54
2023/03/01 05:17:12;;;;;;;;;;;;;;;17.29;54.58;98181.34;2060033;28;19979;-52
2023/03/01 05:18:12;;;;;;;;;;;;;;;17.29;54.58;98192.09;2066038;28;20582;-48
2023/03/01 05:19:16;;;;;;;;;;;;;;;17.32;54.57;98191.66;2061846;28;20582;-50
2023/03/01 05:20:16;;;;;;;;;;;;;;;17.35;54.48;98191.25;2064018;28;20275;-53
2023/03/01 05:21:18;;;;;;;;;;;;;;;17.35;54.40;98192.06;2065972;28;20020;-51
2023/03/01 05:22:19;;;;;;;;;;;;;;;17.36;54.29;98199.09;2074058;28;19943;-49
2023/03/01 05:23:20;;;;;;;;;;;;;;;17.37;54.51;98199.91;2074447;28;20537;-52
2023/03/01 05:24:20;;;;;;;;;;;;;;;17.38;54.51;98191.69;2073140;28;20010;-50
2023/03/01 05:25:23;;;;;;;;;;;;;;;17.39;54.28;98185.28;2073389;28;19934;-50
2023/03/01 05:26:28;;;;;;;;;;;;;;;17.43;54.44;98197.22;2064164;28;19932;-54